sensor_id;sensor_type;location;lat;lon;timestamp;P1;durP1;ratioP1;P2;durP2;ratioP2
73359;SDS011;63092;43.582;19.528;2022-12-29T00:02:18;46.78;;;26.95;;
73359;SDS011;63092;43.582;19.528;2022-12-29T00:04:44;53.42;;;29.25;;
73359;SDS011;63092;43.582;19.528;2022-12-29T00:07:10;48.05;;;28.52;;
73359;SDS011;63092;43.582;19.528;2022-12-29T00:09:35;45.72;;;28.50;;
73359;SDS011;63092;43.582;19.528;2022-12-29T00:12:02;41.50;;;24.85;;
73359;SDS011;63092;43.582;19.528;2022-12-29T00:14:28;46.95;;;25.52;;
73359;SDS011;63092;43.582;19.528;2022-12-29T00:17:12;45.42;;;24.50;;
73359;SDS011;63092;43.582;19.528;2022-12-29T00:19:38;47.60;;;27.23;;
73359;SDS011;63092;43.582;19.528;2022-12-29T00:22:23;57.40;;;29.00;;
73359;SDS011;63092;43.582;19.528;2022-12-29T00:25:09;41.35;;;23.40;;
73359;SDS011;63092;43.582;19.528;2022-12-29T00:27:55;42.67;;;22.58;;
73359;SDS011;63092;43.582;19.528;2022-12-29T00:30:39;47.33;;;25.20;;
73359;SDS011;63092;43.582;19.528;2022-12-29T00:33:25;52.05;;;28.50;;
73359;SDS011;63092;43.582;19.528;2022-12-29T00:38:59;50.40;;;27.55;;
73359;SDS011;63092;43.582;19.528;2022-12-29T00:41:47;45.42;;;24.42;;
73359;SDS011;63092;43.582;19.528;2022-12-29T00:44:32;47.78;;;24.58;;
73359;SDS011;63092;43.582;19.528;2022-12-29T00:46:58;42.83;;;23.25;;
73359;SDS011;63092;43.582;19.528;2022-12-29T00:49:28;47.92;;;25.48;;
73359;SDS011;63092;43.582;19.528;2022-12-29T00:54:32;45.70;;;25.27;;
73359;SDS011;63092;43.582;19.528;2022-12-29T00:56:59;44.35;;;26.50;;
73359;SDS011;63092;43.582;19.528;2022-12-29T00:59:25;52.95;;;28.35;;
73359;SDS011;63092;43.582;19.528;2022-12-29T01:01:51;48.20;;;28.52;;
73359;SDS011;63092;43.582;19.528;2022-12-29T01:04:19;49.47;;;27.38;;
73359;SDS011;63092;43.582;19.528;2022-12-29T01:06:47;50.15;;;27.88;;
73359;SDS011;63092;43.582;19.528;2022-12-29T01:09:13;51.65;;;26.77;;
73359;SDS011;63092;43.582;19.528;2022-12-29T01:11:58;48.03;;;25.92;;
73359;SDS011;63092;43.582;19.528;2022-12-29T01:14:24;45.75;;;23.55;;
73359;SDS011;63092;43.582;19.528;2022-12-29T01:16:50;44.55;;;24.33;;
73359;SDS011;63092;43.582;19.528;2022-12-29T01:19:16;40.58;;;22.30;;
73359;SDS011;63092;43.582;19.528;2022-12-29T01:21:42;44.35;;;24.08;;
73359;SDS011;63092;43.582;19.528;2022-12-29T01:24:08;41.13;;;22.33;;
73359;SDS011;63092;43.582;19.528;2022-12-29T01:26:34;42.05;;;20.33;;
73359;SDS011;63092;43.582;19.528;2022-12-29T01:28:59;38.50;;;20.38;;
73359;SDS011;63092;43.582;19.528;2022-12-29T01:31:25;43.33;;;20.08;;
73359;SDS011;63092;43.582;19.528;2022-12-29T01:33:51;43.50;;;22.38;;
73359;SDS011;63092;43.582;19.528;2022-12-29T01:36:17;42.20;;;19.95;;
73359;SDS011;63092;43.582;19.528;2022-12-29T01:38:43;45.13;;;23.25;;
73359;SDS011;63092;43.582;19.528;2022-12-29T01:41:10;44.78;;;21.80;;
73359;SDS011;63092;43.582;19.528;2022-12-29T01:43:46;41.28;;;21.98;;
73359;SDS011;63092;43.582;19.528;2022-12-29T01:46:29;44.42;;;22.15;;
73359;SDS011;63092;43.582;19.528;2022-12-29T01:49:22;43.63;;;20.73;;
73359;SDS011;63092;43.582;19.528;2022-12-29T01:51:56;42.97;;;20.85;;
73359;SDS011;63092;43.582;19.528;2022-12-29T01:54:25;42.30;;;20.25;;
73359;SDS011;63092;43.582;19.528;2022-12-29T01:57:11;42.60;;;21.08;;
73359;SDS011;63092;43.582;19.528;2022-12-29T01:59:43;45.03;;;20.67;;
73359;SDS011;63092;43.582;19.528;2022-12-29T02:02:18;40.80;;;18.70;;
73359;SDS011;63092;43.582;19.528;2022-12-29T02:04:44;39.25;;;18.15;;
73359;SDS011;63092;43.582;19.528;2022-12-29T02:07:14;37.78;;;18.38;;
73359;SDS011;63092;43.582;19.528;2022-12-29T02:09:48;36.15;;;17.10;;
73359;SDS011;63092;43.582;19.528;2022-12-29T02:12:15;32.05;;;16.05;;
73359;SDS011;63092;43.582;19.528;2022-12-29T02:14:44;33.13;;;15.85;;
73359;SDS011;63092;43.582;19.528;2022-12-29T02:45:02;24.00;;;12.75;;
73359;SDS011;63092;43.582;19.528;2022-12-29T02:53:00;32.45;;;16.00;;
73359;SDS011;63092;43.582;19.528;2022-12-29T02:55:29;31.15;;;14.27;;
73359;SDS011;63092;43.582;19.528;2022-12-29T03:09:36;31.17;;;14.73;;
73359;SDS011;63092;43.582;19.528;2022-12-29T03:15:22;33.97;;;16.50;;
73359;SDS011;63092;43.582;19.528;2022-12-29T03:18:15;46.35;;;22.13;;
73359;SDS011;63092;43.582;19.528;2022-12-29T03:20:49;31.77;;;15.40;;
73359;SDS011;63092;43.582;19.528;2022-12-29T03:23:32;32.80;;;15.05;;
73359;SDS011;63092;43.582;19.528;2022-12-29T03:26:00;33.28;;;16.30;;
73359;SDS011;63092;43.582;19.528;2022-12-29T03:28:32;31.85;;;17.52;;
73359;SDS011;63092;43.582;19.528;2022-12-29T03:31:03;32.92;;;17.50;;
73359;SDS011;63092;43.582;19.528;2022-12-29T03:33:30;30.70;;;16.23;;
73359;SDS011;63092;43.582;19.528;2022-12-29T03:35:58;32.75;;;15.35;;
73359;SDS011;63092;43.582;19.528;2022-12-29T03:38:47;28.77;;;13.65;;
73359;SDS011;63092;43.582;19.528;2022-12-29T03:41:20;26.50;;;12.95;;
73359;SDS011;63092;43.582;19.528;2022-12-29T03:43:50;24.25;;;12.48;;
73359;SDS011;63092;43.582;19.528;2022-12-29T03:46:16;28.45;;;14.20;;
73359;SDS011;63092;43.582;19.528;2022-12-29T03:48:42;27.77;;;13.93;;
73359;SDS011;63092;43.582;19.528;2022-12-29T03:51:08;29.67;;;15.13;;
73359;SDS011;63092;43.582;19.528;2022-12-29T03:53:33;25.35;;;12.93;;
73359;SDS011;63092;43.582;19.528;2022-12-29T03:55:59;22.60;;;11.65;;
73359;SDS011;63092;43.582;19.528;2022-12-29T03:58:24;26.98;;;14.20;;
73359;SDS011;63092;43.582;19.528;2022-12-29T04:00:50;25.55;;;12.77;;
73359;SDS011;63092;43.582;19.528;2022-12-29T04:03:16;21.70;;;10.75;;
73359;SDS011;63092;43.582;19.528;2022-12-29T04:05:41;19.23;;;10.60;;
73359;SDS011;63092;43.582;19.528;2022-12-29T04:08:07;22.02;;;10.95;;
73359;SDS011;63092;43.582;19.528;2022-12-29T04:10:33;20.65;;;11.20;;
73359;SDS011;63092;43.582;19.528;2022-12-29T04:12:59;22.85;;;12.15;;
73359;SDS011;63092;43.582;19.528;2022-12-29T04:15:24;20.52;;;11.30;;
73359;SDS011;63092;43.582;19.528;2022-12-29T04:17:51;22.40;;;11.50;;
73359;SDS011;63092;43.582;19.528;2022-12-29T04:20:17;22.90;;;12.02;;
73359;SDS011;63092;43.582;19.528;2022-12-29T04:23:01;22.40;;;11.68;;
73359;SDS011;63092;43.582;19.528;2022-12-29T04:25:28;18.27;;;10.43;;
73359;SDS011;63092;43.582;19.528;2022-12-29T04:27:55;19.08;;;10.43;;
73359;SDS011;63092;43.582;19.528;2022-12-29T04:30:20;22.17;;;11.77;;
73359;SDS011;63092;43.582;19.528;2022-12-29T04:32:46;17.70;;;10.65;;
73359;SDS011;63092;43.582;19.528;2022-12-29T04:35:12;18.40;;;9.98;;
73359;SDS011;63092;43.582;19.528;2022-12-29T04:37:37;18.75;;;9.23;;
73359;SDS011;63092;43.582;19.528;2022-12-29T04:40:03;18.23;;;9.40;;
73359;SDS011;63092;43.582;19.528;2022-12-29T04:42:29;17.92;;;9.93;;
73359;SDS011;63092;43.582;19.528;2022-12-29T04:44:55;18.05;;;9.25;;
73359;SDS011;63092;43.582;19.528;2022-12-29T04:47:20;18.38;;;9.63;;
73359;SDS011;63092;43.582;19.528;2022-12-29T04:49:46;17.15;;;9.13;;
73359;SDS011;63092;43.582;19.528;2022-12-29T04:52:12;16.25;;;9.38;;
73359;SDS011;63092;43.582;19.528;2022-12-29T04:54:37;19.73;;;10.05;;
73359;SDS011;63092;43.582;19.528;2022-12-29T04:57:03;13.85;;;8.90;;
73359;SDS011;63092;43.582;19.528;2022-12-29T04:59:29;17.92;;;8.52;;
73359;SDS011;63092;43.582;19.528;2022-12-29T05:01:54;13.77;;;8.27;;
73359;SDS011;63092;43.582;19.528;2022-12-29T05:04:20;15.88;;;8.75;;
73359;SDS011;63092;43.582;19.528;2022-12-29T05:06:45;16.15;;;8.68;;
73359;SDS011;63092;43.582;19.528;2022-12-29T05:09:11;13.75;;;7.72;;
73359;SDS011;63092;43.582;19.528;2022-12-29T05:11:37;13.75;;;8.13;;
73359;SDS011;63092;43.582;19.528;2022-12-29T05:14:02;17.50;;;8.90;;
73359;SDS011;63092;43.582;19.528;2022-12-29T05:16:28;16.23;;;9.50;;
73359;SDS011;63092;43.582;19.528;2022-12-29T05:18:54;13.38;;;7.47;;
73359;SDS011;63092;43.582;19.528;2022-12-29T05:21:19;15.48;;;8.20;;
73359;SDS011;63092;43.582;19.528;2022-12-29T05:23:45;13.90;;;9.02;;
73359;SDS011;63092;43.582;19.528;2022-12-29T05:26:10;16.38;;;8.60;;
73359;SDS011;63092;43.582;19.528;2022-12-29T05:28:36;20.10;;;8.38;;
73359;SDS011;63092;43.582;19.528;2022-12-29T05:31:02;21.17;;;10.55;;
73359;SDS011;63092;43.582;19.528;2022-12-29T05:33:27;28.17;;;15.57;;
73359;SDS011;63092;43.582;19.528;2022-12-29T05:35:53;18.75;;;9.70;;
73359;SDS011;63092;43.582;19.528;2022-12-29T05:38:19;19.35;;;10.60;;
73359;SDS011;63092;43.582;19.528;2022-12-29T05:40:44;18.25;;;9.43;;
73359;SDS011;63092;43.582;19.528;2022-12-29T05:43:10;18.73;;;9.10;;
73359;SDS011;63092;43.582;19.528;2022-12-29T05:45:36;22.38;;;9.93;;
73359;SDS011;63092;43.582;19.528;2022-12-29T05:48:01;18.67;;;10.43;;
73359;SDS011;63092;43.582;19.528;2022-12-29T05:50:27;21.67;;;12.60;;
73359;SDS011;63092;43.582;19.528;2022-12-29T05:52:53;21.27;;;10.43;;
73359;SDS011;63092;43.582;19.528;2022-12-29T05:55:19;15.68;;;9.15;;
73359;SDS011;63092;43.582;19.528;2022-12-29T05:57:45;18.05;;;9.20;;
73359;SDS011;63092;43.582;19.528;2022-12-29T06:00:10;16.90;;;9.15;;
73359;SDS011;63092;43.582;19.528;2022-12-29T06:02:36;17.00;;;9.10;;
73359;SDS011;63092;43.582;19.528;2022-12-29T06:05:02;17.10;;;9.02;;
73359;SDS011;63092;43.582;19.528;2022-12-29T06:07:28;18.67;;;10.20;;
73359;SDS011;63092;43.582;19.528;2022-12-29T06:09:54;17.70;;;9.40;;
73359;SDS011;63092;43.582;19.528;2022-12-29T06:12:19;29.17;;;14.07;;
73359;SDS011;63092;43.582;19.528;2022-12-29T06:14:45;19.88;;;11.23;;
73359;SDS011;63092;43.582;19.528;2022-12-29T06:17:10;17.60;;;8.82;;
73359;SDS011;63092;43.582;19.528;2022-12-29T06:19:36;19.02;;;9.55;;
73359;SDS011;63092;43.582;19.528;2022-12-29T06:22:02;17.63;;;9.60;;
73359;SDS011;63092;43.582;19.528;2022-12-29T06:24:28;22.50;;;10.50;;
73359;SDS011;63092;43.582;19.528;2022-12-29T06:26:53;20.55;;;10.32;;
73359;SDS011;63092;43.582;19.528;2022-12-29T06:29:19;19.85;;;10.38;;
73359;SDS011;63092;43.582;19.528;2022-12-29T06:31:45;18.40;;;9.68;;
73359;SDS011;63092;43.582;19.528;2022-12-29T06:34:12;25.40;;;13.93;;
73359;SDS011;63092;43.582;19.528;2022-12-29T06:36:38;22.77;;;10.73;;
73359;SDS011;63092;43.582;19.528;2022-12-29T06:39:04;34.63;;;20.75;;
73359;SDS011;63092;43.582;19.528;2022-12-29T06:41:30;41.78;;;24.90;;
73359;SDS011;63092;43.582;19.528;2022-12-29T06:43:56;29.65;;;17.27;;
73359;SDS011;63092;43.582;19.528;2022-12-29T06:46:22;24.77;;;13.88;;
73359;SDS011;63092;43.582;19.528;2022-12-29T06:48:48;20.30;;;10.98;;
73359;SDS011;63092;43.582;19.528;2022-12-29T06:51:13;22.58;;;12.45;;
73359;SDS011;63092;43.582;19.528;2022-12-29T06:53:39;26.25;;;15.35;;
73359;SDS011;63092;43.582;19.528;2022-12-29T06:56:04;29.30;;;18.40;;
73359;SDS011;63092;43.582;19.528;2022-12-29T06:58:30;30.63;;;16.83;;
73359;SDS011;63092;43.582;19.528;2022-12-29T07:00:56;28.48;;;16.17;;
73359;SDS011;63092;43.582;19.528;2022-12-29T07:03:22;30.85;;;17.30;;
73359;SDS011;63092;43.582;19.528;2022-12-29T07:05:48;24.23;;;12.43;;
73359;SDS011;63092;43.582;19.528;2022-12-29T07:08:13;21.67;;;10.80;;
73359;SDS011;63092;43.582;19.528;2022-12-29T07:10:39;22.25;;;12.93;;
73359;SDS011;63092;43.582;19.528;2022-12-29T07:13:05;27.30;;;13.02;;
73359;SDS011;63092;43.582;19.528;2022-12-29T07:15:32;31.17;;;18.40;;
73359;SDS011;63092;43.582;19.528;2022-12-29T07:17:59;27.40;;;15.23;;
73359;SDS011;63092;43.582;19.528;2022-12-29T07:20:24;22.05;;;12.68;;
73359;SDS011;63092;43.582;19.528;2022-12-29T07:22:50;18.58;;;9.35;;
73359;SDS011;63092;43.582;19.528;2022-12-29T07:25:16;17.17;;;9.43;;
73359;SDS011;63092;43.582;19.528;2022-12-29T07:27:42;19.90;;;10.40;;
73359;SDS011;63092;43.582;19.528;2022-12-29T07:30:08;21.85;;;11.75;;
73359;SDS011;63092;43.582;19.528;2022-12-29T07:32:34;23.23;;;12.18;;
73359;SDS011;63092;43.582;19.528;2022-12-29T07:34:59;25.98;;;14.88;;
73359;SDS011;63092;43.582;19.528;2022-12-29T07:37:25;26.38;;;14.45;;
73359;SDS011;63092;43.582;19.528;2022-12-29T07:39:51;15.40;;;9.60;;
73359;SDS011;63092;43.582;19.528;2022-12-29T07:42:16;19.92;;;11.20;;
73359;SDS011;63092;43.582;19.528;2022-12-29T07:44:42;17.80;;;9.82;;
73359;SDS011;63092;43.582;19.528;2022-12-29T07:47:08;31.05;;;17.13;;
73359;SDS011;63092;43.582;19.528;2022-12-29T07:49:33;27.05;;;13.50;;
73359;SDS011;63092;43.582;19.528;2022-12-29T07:51:59;30.70;;;16.67;;
73359;SDS011;63092;43.582;19.528;2022-12-29T07:54:25;36.55;;;17.67;;
73359;SDS011;63092;43.582;19.528;2022-12-29T07:56:51;54.30;;;28.30;;
73359;SDS011;63092;43.582;19.528;2022-12-29T07:59:17;29.35;;;15.60;;
73359;SDS011;63092;43.582;19.528;2022-12-29T08:01:42;26.50;;;14.13;;
73359;SDS011;63092;43.582;19.528;2022-12-29T08:04:08;22.75;;;11.27;;
73359;SDS011;63092;43.582;19.528;2022-12-29T08:06:34;20.02;;;11.95;;
73359;SDS011;63092;43.582;19.528;2022-12-29T08:09:00;34.00;;;18.92;;
73359;SDS011;63092;43.582;19.528;2022-12-29T08:11:26;77.68;;;37.25;;
73359;SDS011;63092;43.582;19.528;2022-12-29T08:13:52;46.42;;;24.65;;
73359;SDS011;63092;43.582;19.528;2022-12-29T08:16:18;31.52;;;16.80;;
73359;SDS011;63092;43.582;19.528;2022-12-29T08:18:43;22.35;;;13.55;;
73359;SDS011;63092;43.582;19.528;2022-12-29T08:21:09;19.50;;;12.23;;
73359;SDS011;63092;43.582;19.528;2022-12-29T08:23:35;23.65;;;13.52;;
73359;SDS011;63092;43.582;19.528;2022-12-29T08:26:02;42.60;;;24.85;;
73359;SDS011;63092;43.582;19.528;2022-12-29T08:28:30;27.50;;;16.88;;
73359;SDS011;63092;43.582;19.528;2022-12-29T08:30:59;24.20;;;14.88;;
73359;SDS011;63092;43.582;19.528;2022-12-29T08:33:26;30.63;;;18.83;;
73359;SDS011;63092;43.582;19.528;2022-12-29T08:35:52;34.92;;;20.85;;
73359;SDS011;63092;43.582;19.528;2022-12-29T08:38:23;29.13;;;18.83;;
73359;SDS011;63092;43.582;19.528;2022-12-29T08:40:50;25.75;;;15.98;;
73359;SDS011;63092;43.582;19.528;2022-12-29T08:43:16;21.15;;;12.60;;
73359;SDS011;63092;43.582;19.528;2022-12-29T08:45:42;22.08;;;11.68;;
73359;SDS011;63092;43.582;19.528;2022-12-29T08:48:08;20.85;;;11.88;;
73359;SDS011;63092;43.582;19.528;2022-12-29T08:50:33;17.65;;;10.00;;
73359;SDS011;63092;43.582;19.528;2022-12-29T08:52:59;23.13;;;12.65;;
73359;SDS011;63092;43.582;19.528;2022-12-29T08:55:25;24.65;;;12.85;;
73359;SDS011;63092;43.582;19.528;2022-12-29T08:57:51;23.50;;;13.23;;
73359;SDS011;63092;43.582;19.528;2022-12-29T09:00:17;20.10;;;12.13;;
73359;SDS011;63092;43.582;19.528;2022-12-29T09:02:43;16.70;;;9.63;;
73359;SDS011;63092;43.582;19.528;2022-12-29T09:05:09;21.50;;;10.65;;
73359;SDS011;63092;43.582;19.528;2022-12-29T09:07:35;14.88;;;9.40;;
73359;SDS011;63092;43.582;19.528;2022-12-29T09:10:01;23.58;;;14.38;;
73359;SDS011;63092;43.582;19.528;2022-12-29T09:12:27;19.92;;;10.98;;
73359;SDS011;63092;43.582;19.528;2022-12-29T09:14:53;19.05;;;10.20;;
73359;SDS011;63092;43.582;19.528;2022-12-29T09:17:18;20.73;;;11.80;;
73359;SDS011;63092;43.582;19.528;2022-12-29T09:20:02;16.67;;;8.38;;
73359;SDS011;63092;43.582;19.528;2022-12-29T09:22:28;17.85;;;10.57;;
73359;SDS011;63092;43.582;19.528;2022-12-29T09:24:54;19.88;;;9.48;;
73359;SDS011;63092;43.582;19.528;2022-12-29T09:27:20;17.92;;;11.18;;
73359;SDS011;63092;43.582;19.528;2022-12-29T09:29:45;17.30;;;9.80;;
73359;SDS011;63092;43.582;19.528;2022-12-29T09:32:11;18.90;;;10.35;;
73359;SDS011;63092;43.582;19.528;2022-12-29T09:34:38;14.50;;;8.88;;
73359;SDS011;63092;43.582;19.528;2022-12-29T09:37:04;22.45;;;13.77;;
73359;SDS011;63092;43.582;19.528;2022-12-29T09:39:29;24.27;;;14.27;;
73359;SDS011;63092;43.582;19.528;2022-12-29T09:42:04;28.15;;;16.38;;
73359;SDS011;63092;43.582;19.528;2022-12-29T09:45:19;20.30;;;14.13;;
73359;SDS011;63092;43.582;19.528;2022-12-29T09:47:33;23.77;;;13.65;;
73359;SDS011;63092;43.582;19.528;2022-12-29T09:50:05;26.75;;;13.75;;
73359;SDS011;63092;43.582;19.528;2022-12-29T09:52:52;23.88;;;13.98;;
73359;SDS011;63092;43.582;19.528;2022-12-29T09:55:33;20.70;;;11.95;;
73359;SDS011;63092;43.582;19.528;2022-12-29T09:58:09;16.92;;;10.63;;
73359;SDS011;63092;43.582;19.528;2022-12-29T10:24:48;13.68;;;8.30;;
73359;SDS011;63092;43.582;19.528;2022-12-29T10:27:17;16.98;;;10.77;;
73359;SDS011;63092;43.582;19.528;2022-12-29T10:30:02;17.98;;;10.10;;
73359;SDS011;63092;43.582;19.528;2022-12-29T10:32:36;18.98;;;10.90;;
73359;SDS011;63092;43.582;19.528;2022-12-29T10:38:12;24.92;;;14.95;;
73359;SDS011;63092;43.582;19.528;2022-12-29T10:43:24;16.63;;;10.13;;
73359;SDS011;63092;43.582;19.528;2022-12-29T10:45:58;39.67;;;20.27;;
73359;SDS011;63092;43.582;19.528;2022-12-29T10:48:28;23.65;;;13.88;;
73359;SDS011;63092;43.582;19.528;2022-12-29T10:50:57;17.15;;;9.80;;
73359;SDS011;63092;43.582;19.528;2022-12-29T10:53:30;17.83;;;8.93;;
73359;SDS011;63092;43.582;19.528;2022-12-29T10:56:04;49.13;;;25.55;;
73359;SDS011;63092;43.582;19.528;2022-12-29T10:58:40;28.77;;;16.27;;
73359;SDS011;63092;43.582;19.528;2022-12-29T11:01:07;22.63;;;14.27;;
73359;SDS011;63092;43.582;19.528;2022-12-29T11:06:25;28.70;;;18.85;;
73359;SDS011;63092;43.582;19.528;2022-12-29T11:09:07;34.53;;;21.70;;
73359;SDS011;63092;43.582;19.528;2022-12-29T11:11:39;27.77;;;17.77;;
73359;SDS011;63092;43.582;19.528;2022-12-29T11:14:17;22.50;;;14.48;;
73359;SDS011;63092;43.582;19.528;2022-12-29T11:16:44;17.38;;;10.50;;
73359;SDS011;63092;43.582;19.528;2022-12-29T11:19:27;23.88;;;14.88;;
73359;SDS011;63092;43.582;19.528;2022-12-29T11:21:56;57.47;;;30.27;;
73359;SDS011;63092;43.582;19.528;2022-12-29T11:24:48;33.05;;;19.08;;
73359;SDS011;63092;43.582;19.528;2022-12-29T11:27:17;48.50;;;28.63;;
73359;SDS011;63092;43.582;19.528;2022-12-29T11:29:45;23.65;;;15.40;;
73359;SDS011;63092;43.582;19.528;2022-12-29T11:32:13;40.15;;;21.38;;
73359;SDS011;63092;43.582;19.528;2022-12-29T11:34:44;41.78;;;23.98;;
73359;SDS011;63092;43.582;19.528;2022-12-29T11:37:19;19.70;;;12.17;;
73359;SDS011;63092;43.582;19.528;2022-12-29T11:43:13;18.88;;;12.02;;
73359;SDS011;63092;43.582;19.528;2022-12-29T11:45:16;49.80;;;23.48;;
73359;SDS011;63092;43.582;19.528;2022-12-29T11:47:48;77.45;;;37.20;;
73359;SDS011;63092;43.582;19.528;2022-12-29T11:50:35;29.25;;;17.73;;
73359;SDS011;63092;43.582;19.528;2022-12-29T11:55:57;18.42;;;11.27;;
73359;SDS011;63092;43.582;19.528;2022-12-29T11:58:32;18.90;;;11.68;;
73359;SDS011;63092;43.582;19.528;2022-12-29T12:01:23;25.45;;;15.15;;
73359;SDS011;63092;43.582;19.528;2022-12-29T12:04:04;25.83;;;13.85;;
73359;SDS011;63092;43.582;19.528;2022-12-29T12:06:36;22.33;;;13.55;;
73359;SDS011;63092;43.582;19.528;2022-12-29T12:09:14;25.50;;;15.43;;
73359;SDS011;63092;43.582;19.528;2022-12-29T12:16:59;37.17;;;22.38;;
73359;SDS011;63092;43.582;19.528;2022-12-29T12:19:32;24.98;;;15.57;;
73359;SDS011;63092;43.582;19.528;2022-12-29T12:22:13;28.02;;;16.00;;
73359;SDS011;63092;43.582;19.528;2022-12-29T12:24:53;30.92;;;17.98;;
73359;SDS011;63092;43.582;19.528;2022-12-29T12:27:30;25.38;;;16.00;;
73359;SDS011;63092;43.582;19.528;2022-12-29T12:32:54;40.58;;;26.83;;
73359;SDS011;63092;43.582;19.528;2022-12-29T12:35:43;26.50;;;16.80;;
73359;SDS011;63092;43.582;19.528;2022-12-29T12:38:20;29.65;;;18.40;;
73359;SDS011;63092;43.582;19.528;2022-12-29T12:52:33;23.75;;;14.02;;
73359;SDS011;63092;43.582;19.528;2022-12-29T12:55:30;26.52;;;15.43;;
73359;SDS011;63092;43.582;19.528;2022-12-29T13:01:14;25.40;;;15.30;;
73359;SDS011;63092;43.582;19.528;2022-12-29T13:09:48;32.15;;;18.92;;
73359;SDS011;63092;43.582;19.528;2022-12-29T13:15:12;35.78;;;21.60;;
73359;SDS011;63092;43.582;19.528;2022-12-29T13:18:02;41.75;;;22.65;;
73359;SDS011;63092;43.582;19.528;2022-12-29T13:20:43;53.72;;;31.73;;
73359;SDS011;63092;43.582;19.528;2022-12-29T13:23:41;41.85;;;22.17;;
73359;SDS011;63092;43.582;19.528;2022-12-29T13:29:09;45.50;;;27.23;;
73359;SDS011;63092;43.582;19.528;2022-12-29T13:34:47;45.78;;;23.60;;
73359;SDS011;63092;43.582;19.528;2022-12-29T13:37:26;52.95;;;29.63;;
73359;SDS011;63092;43.582;19.528;2022-12-29T13:39:55;51.03;;;28.38;;
73359;SDS011;63092;43.582;19.528;2022-12-29T13:42:25;47.40;;;26.38;;
73359;SDS011;63092;43.582;19.528;2022-12-29T13:44:57;48.28;;;27.05;;
73359;SDS011;63092;43.582;19.528;2022-12-29T13:47:33;33.67;;;21.42;;
73359;SDS011;63092;43.582;19.528;2022-12-29T13:50:13;60.75;;;34.40;;
73359;SDS011;63092;43.582;19.528;2022-12-29T13:52:44;53.50;;;29.25;;
73359;SDS011;63092;43.582;19.528;2022-12-29T13:55:25;55.10;;;33.35;;
73359;SDS011;63092;43.582;19.528;2022-12-29T13:58:47;57.65;;;35.00;;
73359;SDS011;63092;43.582;19.528;2022-12-29T14:00:56;74.40;;;44.15;;
73359;SDS011;63092;43.582;19.528;2022-12-29T14:03:47;66.32;;;39.30;;
73359;SDS011;63092;43.582;19.528;2022-12-29T14:06:27;53.85;;;30.92;;
73359;SDS011;63092;43.582;19.528;2022-12-29T14:11:51;56.45;;;32.58;;
73359;SDS011;63092;43.582;19.528;2022-12-29T14:14:21;61.28;;;38.50;;
73359;SDS011;63092;43.582;19.528;2022-12-29T14:16:49;50.97;;;33.75;;
73359;SDS011;63092;43.582;19.528;2022-12-29T14:19:17;68.15;;;41.55;;
73359;SDS011;63092;43.582;19.528;2022-12-29T14:21:51;43.80;;;28.27;;
73359;SDS011;63092;43.582;19.528;2022-12-29T14:27:03;47.03;;;29.02;;
73359;SDS011;63092;43.582;19.528;2022-12-29T14:29:47;55.33;;;31.85;;
73359;SDS011;63092;43.582;19.528;2022-12-29T14:34:49;48.15;;;28.08;;
73359;SDS011;63092;43.582;19.528;2022-12-29T14:37:41;52.22;;;31.33;;
73359;SDS011;63092;43.582;19.528;2022-12-29T14:42:43;76.80;;;49.88;;
73359;SDS011;63092;43.582;19.528;2022-12-29T14:52:59;43.10;;;26.23;;
73359;SDS011;63092;43.582;19.528;2022-12-29T14:55:37;58.58;;;33.63;;
73359;SDS011;63092;43.582;19.528;2022-12-29T15:00:46;69.22;;;38.45;;
73359;SDS011;63092;43.582;19.528;2022-12-29T15:03:27;79.53;;;44.85;;
73359;SDS011;63092;43.582;19.528;2022-12-29T15:08:46;61.30;;;34.08;;
73359;SDS011;63092;43.582;19.528;2022-12-29T15:11:18;58.17;;;33.10;;
73359;SDS011;63092;43.582;19.528;2022-12-29T15:13:46;57.47;;;35.22;;
73359;SDS011;63092;43.582;19.528;2022-12-29T15:16:28;162.80;;;65.10;;
73359;SDS011;63092;43.582;19.528;2022-12-29T15:18:56;134.27;;;70.63;;
73359;SDS011;63092;43.582;19.528;2022-12-29T15:21:24;70.00;;;41.60;;
73359;SDS011;63092;43.582;19.528;2022-12-29T15:23:51;87.25;;;50.05;;
73359;SDS011;63092;43.582;19.528;2022-12-29T15:26:17;72.95;;;39.47;;
73359;SDS011;63092;43.582;19.528;2022-12-29T15:28:47;72.47;;;41.03;;
73359;SDS011;63092;43.582;19.528;2022-12-29T15:31:19;55.50;;;33.97;;
73359;SDS011;63092;43.582;19.528;2022-12-29T15:33:49;77.75;;;45.20;;
73359;SDS011;63092;43.582;19.528;2022-12-29T15:36:27;76.57;;;45.15;;
73359;SDS011;63092;43.582;19.528;2022-12-29T15:38:54;67.05;;;38.17;;
73359;SDS011;63092;43.582;19.528;2022-12-29T15:43:56;85.50;;;47.08;;
73359;SDS011;63092;43.582;19.528;2022-12-29T15:46:27;121.20;;;69.40;;
73359;SDS011;63092;43.582;19.528;2022-12-29T15:48:55;165.07;;;88.07;;
73359;SDS011;63092;43.582;19.528;2022-12-29T15:51:27;163.32;;;85.70;;
73359;SDS011;63092;43.582;19.528;2022-12-29T15:53:55;150.75;;;78.05;;
73359;SDS011;63092;43.582;19.528;2022-12-29T15:56:22;117.90;;;59.97;;
73359;SDS011;63092;43.582;19.528;2022-12-29T15:58:49;91.65;;;49.08;;
73359;SDS011;63092;43.582;19.528;2022-12-29T16:04:08;99.97;;;52.03;;
73359;SDS011;63092;43.582;19.528;2022-12-29T16:06:38;154.43;;;82.47;;
73359;SDS011;63092;43.582;19.528;2022-12-29T16:11:43;98.78;;;50.83;;
73359;SDS011;63092;43.582;19.528;2022-12-29T16:14:20;91.75;;;49.90;;
73359;SDS011;63092;43.582;19.528;2022-12-29T16:16:53;110.13;;;60.08;;
73359;SDS011;63092;43.582;19.528;2022-12-29T16:22:03;85.40;;;45.58;;
73359;SDS011;63092;43.582;19.528;2022-12-29T16:24:50;74.80;;;38.92;;
73359;SDS011;63092;43.582;19.528;2022-12-29T16:29:53;77.07;;;41.78;;
73359;SDS011;63092;43.582;19.528;2022-12-29T16:34:49;131.98;;;64.10;;
73359;SDS011;63092;43.582;19.528;2022-12-29T16:37:30;98.20;;;47.90;;
73359;SDS011;63092;43.582;19.528;2022-12-29T16:42:54;71.88;;;38.33;;
73359;SDS011;63092;43.582;19.528;2022-12-29T16:50:31;63.92;;;35.20;;
73359;SDS011;63092;43.582;19.528;2022-12-29T16:52:59;55.25;;;31.65;;
73359;SDS011;63092;43.582;19.528;2022-12-29T16:55:27;51.10;;;29.73;;
73359;SDS011;63092;43.582;19.528;2022-12-29T16:57:53;60.60;;;36.35;;
73359;SDS011;63092;43.582;19.528;2022-12-29T17:02:48;76.18;;;37.00;;
73359;SDS011;63092;43.582;19.528;2022-12-29T17:05:18;48.85;;;26.48;;
73359;SDS011;63092;43.582;19.528;2022-12-29T17:07:44;83.57;;;40.85;;
73359;SDS011;63092;43.582;19.528;2022-12-29T17:10:10;73.00;;;39.72;;
73359;SDS011;63092;43.582;19.528;2022-12-29T17:12:38;308.55;;;105.10;;
73359;SDS011;63092;43.582;19.528;2022-12-29T17:17:40;70.90;;;37.72;;
73359;SDS011;63092;43.582;19.528;2022-12-29T17:20:26;70.03;;;38.33;;
73359;SDS011;63092;43.582;19.528;2022-12-29T17:22:53;81.07;;;43.40;;
73359;SDS011;63092;43.582;19.528;2022-12-29T17:25:22;101.88;;;53.92;;
73359;SDS011;63092;43.582;19.528;2022-12-29T17:28:00;89.43;;;44.78;;
73359;SDS011;63092;43.582;19.528;2022-12-29T17:30:29;98.18;;;49.72;;
73359;SDS011;63092;43.582;19.528;2022-12-29T17:32:59;89.20;;;46.63;;